Time;durP1;ratioP1;P1;durP2;ratioP2;P2;SDS_P1;SDS_P2;PMS_P1;PMS_P2;Temp;Humidity;BMP_temperature;BMP_pressure;BME280_temperature;BME280_humidity;BME280_pressure;Samples;Min_cycle;Max_cycle;Signal;HPM_P1;HPM_P2
2022/10/31 00:01:58;;;;;;;6.88;2.22;;;;;;;;;;5075111;28;20135;-80
2022/10/31 00:04:23;;;;;;;4.22;2.65;;;;;;;;;;5073878;28;20395;-80
2022/10/31 00:06:49;;;;;;;5.90;2.47;;;;;;;;;;5057292;28;20033;-80
2022/10/31 00:09:14;;;;;;;6.25;3.15;;;;;;;;;;5056405;28;20032;-80
2022/10/31 00:11:39;;;;;;;4.53;2.50;;;;;;;;;;5073629;28;20040;-80
2022/10/31 00:14:05;;;;;;;3.45;2.40;;;;;;;;;;5057210;28;20016;-80
2022/10/31 00:16:31;;;;;;;4.35;2.40;;;;;;;;;;5040268;28;20029;-80
2022/10/31 00:19:02;;;;;;;4.45;2.70;;;;;;;;;;5073514;28;20032;-80
2022/10/31 00:21:29;;;;;;;3.65;2.40;;;;;;;;;;5073609;28;20078;-80
2022/10/31 00:23:54;;;;;;;4.43;2.50;;;;;;;;;;5074801;28;20086;-80
2022/10/31 00:26:19;;;;;;;5.25;2.53;;;;;;;;;;5056659;28;20036;-80
2022/10/31 00:28:45;;;;;;;5.07;2.72;;;;;;;;;;5074779;28;20475;-80
2022/10/31 00:31:11;;;;;;;4.40;2.28;;;;;;;;;;5056939;28;20032;-80
2022/10/31 00:33:38;;;;;;;4.38;2.40;;;;;;;;;;5073263;28;20031;-79
2022/10/31 00:36:05;;;;;;;5.63;2.83;;;;;;;;;;5056497;28;20097;-80
2022/10/31 00:38:30;;;;;;;5.53;2.53;;;;;;;;;;5056491;28;20029;-80
2022/10/31 00:40:55;;;;;;;3.50;2.65;;;;;;;;;;5074436;28;20104;-80
2022/10/31 00:43:21;;;;;;;4.72;2.40;;;;;;;;;;5056495;28;20386;-80
2022/10/31 00:45:46;;;;;;;4.93;2.28;;;;;;;;;;5055990;28;20044;-80
2022/10/31 00:48:12;;;;;;;5.60;2.67;;;;;;;;;;5074712;28;20024;-81
2022/10/31 00:50:37;;;;;;;3.95;2.30;;;;;;;;;;5073202;28;20021;-80
2022/10/31 00:53:03;;;;;;;5.60;2.25;;;;;;;;;;5074055;28;20056;-80
2022/10/31 00:55:29;;;;;;;3.08;2.28;;;;;;;;;;5072732;28;20033;-80
2022/10/31 00:57:54;;;;;;;3.38;2.40;;;;;;;;;;5073136;28;20035;-79
2022/10/31 01:00:19;;;;;;;4.53;2.53;;;;;;;;;;5074125;28;20451;-80
2022/10/31 01:02:45;;;;;;;3.75;2.55;;;;;;;;;;5055945;28;20017;-80
2022/10/31 01:05:10;;;;;;;5.20;2.35;;;;;;;;;;5074225;28;20043;-79
2022/10/31 01:07:36;;;;;;;3.60;2.58;;;;;;;;;;5055950;28;20080;-80
2022/10/31 01:10:03;;;;;;;4.05;2.42;;;;;;;;;;5055964;28;20020;-80
2022/10/31 01:12:28;;;;;;;4.18;2.33;;;;;;;;;;5056034;28;20115;-80
2022/10/31 01:14:54;;;;;;;5.82;2.70;;;;;;;;;;5055826;28;20056;-80
2022/10/31 01:17:19;;;;;;;3.13;2.20;;;;;;;;;;5074103;28;20402;-79
2022/10/31 01:19:45;;;;;;;6.65;2.80;;;;;;;;;;5072664;28;20043;-80
2022/10/31 01:22:10;;;;;;;3.45;2.20;;;;;;;;;;5071531;28;20036;-80
2022/10/31 01:24:35;;;;;;;4.00;2.30;;;;;;;;;;5072394;28;20181;-79
2022/10/31 01:27:01;;;;;;;5.30;2.35;;;;;;;;;;5073972;28;20433;-80
2022/10/31 01:29:26;;;;;;;4.18;2.38;;;;;;;;;;5072220;28;20106;-80
2022/10/31 01:31:52;;;;;;;3.72;2.17;;;;;;;;;;5073407;28;20032;-80
2022/10/31 01:34:17;;;;;;;5.35;2.50;;;;;;;;;;5073341;28;20036;-80
2022/10/31 01:36:44;;;;;;;3.70;2.50;;;;;;;;;;5055474;28;20036;-80
2022/10/31 01:39:15;;;;;;;4.43;2.65;;;;;;;;;;5072392;28;20031;-80
2022/10/31 01:41:43;;;;;;;3.45;2.45;;;;;;;;;;5072227;28;20064;-79
2022/10/31 01:44:15;;;;;;;4.40;2.30;;;;;;;;;;5071907;28;20494;-79
2022/10/31 01:46:46;;;;;;;4.10;2.75;;;;;;;;;;5073720;28;20090;-80
2022/10/31 01:49:24;;;;;;;3.63;2.60;;;;;;;;;;5073458;28;20036;-80
2022/10/31 01:51:57;;;;;;;4.93;2.50;;;;;;;;;;5073273;28;20048;-80
2022/10/31 01:54:28;;;;;;;3.25;2.60;;;;;;;;;;5073371;28;20095;-80
2022/10/31 01:56:55;;;;;;;2.78;2.20;;;;;;;;;;5072652;28;20039;-81
2022/10/31 01:59:21;;;;;;;7.72;2.72;;;;;;;;;;5072776;28;20024;-80
2022/10/31 02:01:47;;;;;;;4.22;2.85;;;;;;;;;;5072111;28;20102;-80
2022/10/31 02:04:13;;;;;;;4.70;2.50;;;;;;;;;;5073233;28;20471;-80
2022/10/31 02:06:44;;;;;;;5.22;2.67;;;;;;;;;;5072991;28;20055;-80
2022/10/31 02:09:10;;;;;;;3.17;2.42;;;;;;;;;;5071804;28;20020;-80
2022/10/31 02:11:36;;;;;;;4.63;2.60;;;;;;;;;;5071832;28;20351;-80
2022/10/31 02:14:02;;;;;;;4.45;2.33;;;;;;;;;;5072262;28;20028;-79
2022/10/31 02:16:28;;;;;;;6.40;2.70;;;;;;;;;;5071715;28;20036;-80
2022/10/31 02:18:54;;;;;;;4.93;2.30;;;;;;;;;;5072268;28;20102;-80
2022/10/31 02:21:25;;;;;;;3.60;2.50;;;;;;;;;;5054874;28;20442;-80
2022/10/31 02:24:15;;;;;;;3.75;2.33;;;;;;;;;;5073045;28;20074;-81
2022/10/31 02:27:04;;;;;;;3.80;2.38;;;;;;;;;;5072765;28;20425;-80
2022/10/31 02:29:48;;;;;;;4.30;2.45;;;;;;;;;;5071425;28;20479;-80
2022/10/31 02:32:16;;;;;;;4.60;2.33;;;;;;;;;;5071904;28;20391;-80
2022/10/31 02:34:53;;;;;;;4.30;2.65;;;;;;;;;;5075411;28;20526;-81
2022/10/31 02:37:23;;;;;;;2.65;2.15;;;;;;;;;;5076621;28;20028;-81
2022/10/31 02:39:48;;;;;;;5.38;2.60;;;;;;;;;;5075556;28;20021;-81
2022/10/31 02:42:29;;;;;;;3.63;2.60;;;;;;;;;;5076877;28;20035;-80
2022/10/31 02:44:57;;;;;;;2.83;2.25;;;;;;;;;;5075301;28;20045;-80
2022/10/31 02:47:26;;;;;;;5.47;2.53;;;;;;;;;;5075515;28;20043;-80
2022/10/31 02:50:06;;;;;;;4.90;2.50;;;;;;;;;;5075515;28;20034;-81
2022/10/31 02:52:33;;;;;;;3.03;2.10;;;;;;;;;;5058338;28;20049;-81
2022/10/31 02:54:59;;;;;;;3.15;2.33;;;;;;;;;;5076292;28;20029;-81
2022/10/31 02:57:35;;;;;;;3.72;2.22;;;;;;;;;;5075094;28;20119;-80
2022/10/31 03:00:05;;;;;;;2.95;2.28;;;;;;;;;;5075065;28;20470;-80
2022/10/31 03:02:53;;;;;;;4.72;2.50;;;;;;;;;;5074918;28;20421;-80
2022/10/31 03:05:31;;;;;;;5.30;2.42;;;;;;;;;;5076300;28;20559;-80
2022/10/31 03:08:15;;;;;;;2.92;2.30;;;;;;;;;;5074887;28;20074;-80
2022/10/31 03:10:48;;;;;;;3.22;2.33;;;;;;;;;;5076009;28;20498;-80
2022/10/31 03:13:20;;;;;;;3.88;2.10;;;;;;;;;;5058416;28;20036;-81
2022/10/31 03:15:49;;;;;;;2.65;2.05;;;;;;;;;;5076200;28;20024;-80
2022/10/31 03:18:20;;;;;;;4.60;2.15;;;;;;;;;;5058219;28;20483;-80
2022/10/31 03:20:52;;;;;;;3.30;2.30;;;;;;;;;;5075945;28;20059;-80
2022/10/31 03:23:19;;;;;;;3.80;2.42;;;;;;;;;;5074852;28;20024;-80
2022/10/31 03:25:45;;;;;;;3.22;2.22;;;;;;;;;;5058316;28;20375;-80
2022/10/31 03:28:12;;;;;;;3.72;2.53;;;;;;;;;;5074725;28;20040;-80
2022/10/31 03:30:41;;;;;;;3.72;2.15;;;;;;;;;;5074532;28;20028;-80
2022/10/31 03:33:10;;;;;;;3.17;2.10;;;;;;;;;;5074502;28;20021;-80
2022/10/31 03:35:36;;;;;;;3.85;2.03;;;;;;;;;;5075865;28;20028;-80
2022/10/31 03:38:03;;;;;;;4.18;2.38;;;;;;;;;;5074756;28;20210;-80
2022/10/31 03:40:29;;;;;;;3.20;2.15;;;;;;;;;;5057796;28;20033;-80
2022/10/31 03:42:59;;;;;;;2.00;1.88;;;;;;;;;;5075758;28;20032;-80
2022/10/31 03:45:26;;;;;;;4.00;2.17;;;;;;;;;;5073110;28;20044;-82
2022/10/31 03:47:53;;;;;;;2.92;1.98;;;;;;;;;;5075309;28;20032;-80
2022/10/31 03:50:19;;;;;;;5.00;2.50;;;;;;;;;;5075884;28;20040;-80
2022/10/31 03:52:55;;;;;;;5.40;2.30;;;;;;;;;;5074062;28;20047;-80
2022/10/31 03:55:31;;;;;;;2.60;1.98;;;;;;;;;;5074025;28;20028;-80
2022/10/31 03:58:03;;;;;;;2.85;2.28;;;;;;;;;;5073895;28;20058;-81
2022/10/31 04:00:30;;;;;;;3.88;2.20;;;;;;;;;;5074155;28;20063;-81
2022/10/31 04:03:06;;;;;;;3.63;2.20;;;;;;;;;;5057126;28;20024;-81
2022/10/31 04:05:32;;;;;;;4.95;2.42;;;;;;;;;;5075237;28;20103;-80
2022/10/31 04:07:58;;;;;;;2.88;2.30;;;;;;;;;;5073718;28;20518;-81
2022/10/31 04:10:26;;;;;;;4.90;2.58;;;;;;;;;;5073868;28;20020;-81
2022/10/31 04:12:56;;;;;;;2.70;2.03;;;;;;;;;;5073889;28;20035;-80
2022/10/31 04:15:22;;;;;;;3.15;2.00;;;;;;;;;;5056895;28;20024;-80
2022/10/31 04:17:50;;;;;;;7.15;2.10;;;;;;;;;;5073847;28;20437;-80
2022/10/31 04:20:16;;;;;;;2.47;1.95;;;;;;;;;;5073420;28;20024;-80
2022/10/31 04:22:42;;;;;;;3.90;2.00;;;;;;;;;;5075016;28;20027;-80
2022/10/31 04:25:08;;;;;;;2.85;2.08;;;;;;;;;;5073267;28;20032;-80
2022/10/31 04:27:33;;;;;;;5.47;2.42;;;;;;;;;;5057184;28;20043;-81
2022/10/31 04:29:59;;;;;;;4.72;2.00;;;;;;;;;;5056540;28;20024;-82
2022/10/31 04:32:24;;;;;;;4.05;2.10;;;;;;;;;;5074632;28;20037;-82
2022/10/31 04:34:50;;;;;;;2.30;2.03;;;;;;;;;;5073382;28;20031;-80
2022/10/31 04:37:15;;;;;;;4.07;2.30;;;;;;;;;;5074556;28;20025;-81
2022/10/31 04:39:41;;;;;;;2.85;2.25;;;;;;;;;;5073413;28;20100;-81
2022/10/31 04:42:06;;;;;;;4.18;2.10;;;;;;;;;;5074507;28;20552;-80
2022/10/31 04:44:31;;;;;;;3.42;2.25;;;;;;;;;;5074346;28;20048;-81
2022/10/31 04:46:56;;;;;;;4.53;2.30;;;;;;;;;;5074681;28;20080;-81
2022/10/31 04:49:22;;;;;;;2.83;2.47;;;;;;;;;;5074352;28;20094;-81
2022/10/31 04:51:47;;;;;;;4.97;2.40;;;;;;;;;;5072629;28;20036;-81
2022/10/31 04:54:13;;;;;;;4.07;2.15;;;;;;;;;;5074094;28;20031;-81
2022/10/31 04:56:38;;;;;;;3.55;2.10;;;;;;;;;;5072766;28;20063;-80
2022/10/31 04:59:03;;;;;;;4.97;2.15;;;;;;;;;;5072812;28;20478;-84
2022/10/31 05:01:29;;;;;;;4.53;2.47;;;;;;;;;;5075357;28;20472;-81
2022/10/31 05:03:54;;;;;;;3.90;2.40;;;;;;;;;;5074337;28;20032;-82
2022/10/31 05:06:19;;;;;;;7.03;2.78;;;;;;;;;;5073157;28;20375;-82
2022/10/31 05:08:45;;;;;;;5.47;2.67;;;;;;;;;;5074092;28;20036;-82
2022/10/31 05:11:10;;;;;;;5.00;2.65;;;;;;;;;;5072659;28;20033;-82
2022/10/31 05:13:36;;;;;;;10.23;2.85;;;;;;;;;;5074570;28;20028;-84
2022/10/31 05:16:02;;;;;;;7.40;3.33;;;;;;;;;;5072933;28;20040;-82
2022/10/31 05:18:27;;;;;;;7.07;2.70;;;;;;;;;;5073756;28;20025;-85
2022/10/31 05:20:53;;;;;;;5.45;3.20;;;;;;;;;;5074370;28;20120;-84
2022/10/31 05:23:18;;;;;;;6.38;2.80;;;;;;;;;;5056121;28;20036;-83
2022/10/31 05:25:43;;;;;;;5.10;2.55;;;;;;;;;;5055945;28;20029;-83
2022/10/31 05:28:09;;;;;;;4.57;2.47;;;;;;;;;;5072433;28;20495;-83
2022/10/31 05:30:34;;;;;;;7.30;2.92;;;;;;;;;;5074073;28;20496;-83
2022/10/31 05:33:00;;;;;;;10.30;3.05;;;;;;;;;;5072747;28;20025;-83
2022/10/31 05:35:31;;;;;;;8.02;2.80;;;;;;;;;;5057388;28;20028;-86
2022/10/31 05:37:57;;;;;;;9.02;3.10;;;;;;;;;;5056971;28;20482;-85
2022/10/31 05:40:23;;;;;;;5.57;2.80;;;;;;;;;;5076230;28;20074;-86
2022/10/31 05:42:51;;;;;;;6.20;2.80;;;;;;;;;;5056706;28;20486;-84
2022/10/31 05:45:18;;;;;;;5.57;2.92;;;;;;;;;;5073992;28;20052;-83
2022/10/31 05:47:50;;;;;;;11.13;3.28;;;;;;;;;;5077457;28;20040;-84
2022/10/31 05:50:16;;;;;;;8.07;3.33;;;;;;;;;;5077067;28;20494;-81
2022/10/31 05:52:41;;;;;;;14.60;5.53;;;;;;;;;;5057760;28;20029;-80
2022/10/31 05:55:07;;;;;;;24.38;8.13;;;;;;;;;;5056686;28;20162;-80
2022/10/31 05:57:33;;;;;;;29.80;6.50;;;;;;;;;;5073843;28;20036;-80
2022/10/31 05:59:58;;;;;;;23.08;6.45;;;;;;;;;;5073834;28;20051;-81
2022/10/31 06:02:24;;;;;;;18.52;5.93;;;;;;;;;;5074373;28;20483;-81
2022/10/31 06:04:49;;;;;;;19.05;5.93;;;;;;;;;;5074466;28;20028;-81
2022/10/31 06:07:14;;;;;;;19.52;6.18;;;;;;;;;;5072483;28;20036;-82
2022/10/31 06:09:40;;;;;;;15.23;5.43;;;;;;;;;;5072159;28;20449;-81
2022/10/31 06:12:05;;;;;;;18.98;6.20;;;;;;;;;;5072432;28;20084;-82
2022/10/31 06:14:30;;;;;;;14.25;5.18;;;;;;;;;;5073562;28;20414;-82
2022/10/31 06:16:56;;;;;;;14.18;5.40;;;;;;;;;;5055985;28;20028;-82
2022/10/31 06:19:21;;;;;;;18.92;5.60;;;;;;;;;;5073031;28;20447;-82
2022/10/31 06:21:47;;;;;;;14.65;5.30;;;;;;;;;;5072547;28;20040;-82
2022/10/31 06:24:12;;;;;;;15.00;5.00;;;;;;;;;;5074010;28;20028;-82
2022/10/31 06:26:38;;;;;;;13.35;5.50;;;;;;;;;;5072751;28;20463;-82
2022/10/31 06:29:04;;;;;;;16.17;5.40;;;;;;;;;;5073484;28;20033;-82
2022/10/31 06:31:30;;;;;;;12.00;5.10;;;;;;;;;;5055887;28;20033;-81
2022/10/31 06:33:56;;;;;;;13.50;5.03;;;;;;;;;;5055672;28;20367;-82
2022/10/31 06:36:21;;;;;;;10.70;4.80;;;;;;;;;;5072718;28;20032;-82
2022/10/31 06:38:46;;;;;;;12.93;4.82;;;;;;;;;;5073259;28;20483;-82
2022/10/31 06:41:12;;;;;;;11.85;4.60;;;;;;;;;;5074101;28;20032;-82
2022/10/31 06:43:37;;;;;;;11.60;5.28;;;;;;;;;;5073343;28;20039;-82
2022/10/31 06:46:04;;;;;;;9.63;4.45;;;;;;;;;;5055485;28;20114;-82
2022/10/31 06:48:29;;;;;;;11.15;5.03;;;;;;;;;;5072967;28;20060;-82
2022/10/31 06:50:59;;;;;;;8.73;4.30;;;;;;;;;;5072941;28;20029;-82
2022/10/31 06:53:25;;;;;;;12.32;4.70;;;;;;;;;;5073845;28;20469;-82
2022/10/31 06:55:50;;;;;;;9.68;4.35;;;;;;;;;;5055758;28;20126;-82
2022/10/31 06:58:15;;;;;;;6.85;4.15;;;;;;;;;;5076348;28;20039;-82
2022/10/31 07:00:41;;;;;;;10.20;4.80;;;;;;;;;;5077643;28;20032;-82
2022/10/31 07:03:10;;;;;;;13.43;5.03;;;;;;;;;;5077076;28;20039;-83
2022/10/31 07:05:35;;;;;;;10.15;4.55;;;;;;;;;;5061439;28;20024;-82
2022/10/31 07:08:03;;;;;;;11.35;4.20;;;;;;;;;;5082775;28;20437;-82
2022/10/31 07:10:31;;;;;;;9.98;5.43;;;;;;;;;;5070920;28;20028;-83
2022/10/31 07:13:01;;;;;;;11.02;4.55;;;;;;;;;;5084126;28;20436;-82
2022/10/31 07:15:28;;;;;;;10.05;4.72;;;;;;;;;;5062265;28;20513;-81
2022/10/31 07:17:53;;;;;;;10.38;4.47;;;;;;;;;;5063989;28;20095;-81
2022/10/31 07:20:19;;;;;;;9.70;4.93;;;;;;;;;;5083674;28;20552;-82
2022/10/31 07:22:45;;;;;;;10.30;4.57;;;;;;;;;;5077522;28;20028;-82
2022/10/31 07:25:10;;;;;;;7.72;4.57;;;;;;;;;;5076647;28;20028;-82
2022/10/31 07:27:40;;;;;;;7.35;4.50;;;;;;;;;;5077384;28;20038;-81
2022/10/31 07:30:07;;;;;;;5.82;4.25;;;;;;;;;;5059933;28;20024;-82
2022/10/31 07:32:44;;;;;;;9.65;4.75;;;;;;;;;;5076071;28;20445;-82
2022/10/31 07:35:11;;;;;;;8.52;5.03;;;;;;;;;;5076309;28;20023;-82
2022/10/31 07:37:37;;;;;;;8.07;4.50;;;;;;;;;;5059260;28;20056;-83
2022/10/31 07:40:04;;;;;;;9.35;4.93;;;;;;;;;;5059365;28;20028;-82
2022/10/31 07:42:29;;;;;;;8.38;4.82;;;;;;;;;;5076864;28;20119;-82
2022/10/31 07:44:54;;;;;;;5.28;4.40;;;;;;;;;;5059034;28;20124;-83
2022/10/31 07:47:20;;;;;;;7.70;4.63;;;;;;;;;;5058896;28;20060;-82
2022/10/31 07:49:45;;;;;;;8.93;5.10;;;;;;;;;;5059077;28;20123;-82
2022/10/31 07:52:11;;;;;;;7.53;4.53;;;;;;;;;;5076669;28;20450;-83
2022/10/31 07:54:36;;;;;;;7.97;4.30;;;;;;;;;;5076456;28;20036;-83
2022/10/31 07:57:01;;;;;;;11.48;4.47;;;;;;;;;;5075738;28;20096;-83
2022/10/31 07:59:27;;;;;;;7.03;4.78;;;;;;;;;;5078012;28;20041;-82
2022/10/31 08:01:52;;;;;;;6.85;4.60;;;;;;;;;;5076348;28;20029;-82
2022/10/31 08:04:18;;;;;;;8.93;4.13;;;;;;;;;;5078570;28;20116;-83
2022/10/31 08:06:43;;;;;;;10.13;4.95;;;;;;;;;;5076518;28;20036;-84
2022/10/31 08:09:09;;;;;;;8.07;4.50;;;;;;;;;;5076827;28;20043;-84
2022/10/31 08:11:34;;;;;;;8.52;4.32;;;;;;;;;;5075829;28;20060;-84
2022/10/31 08:13:59;;;;;;;13.68;5.05;;;;;;;;;;5076041;28;20040;-84
2022/10/31 08:16:24;;;;;;;8.85;4.32;;;;;;;;;;5079779;28;20039;-83
2022/10/31 08:18:50;;;;;;;8.70;4.82;;;;;;;;;;5083183;28;20032;-83
2022/10/31 08:21:15;;;;;;;6.35;4.60;;;;;;;;;;5086784;28;20119;-83
2022/10/31 08:23:41;;;;;;;9.27;4.57;;;;;;;;;;5080287;28;20111;-83
2022/10/31 08:26:06;;;;;;;9.15;4.50;;;;;;;;;;5075665;28;20388;-83
2022/10/31 08:28:32;;;;;;;7.53;4.28;;;;;;;;;;5075439;28;20059;-82
2022/10/31 08:30:58;;;;;;;8.43;4.78;;;;;;;;;;5056509;28;20539;-82
2022/10/31 08:33:23;;;;;;;8.50;4.95;;;;;;;;;;5073749;28;20028;-83
2022/10/31 08:35:49;;;;;;;6.38;4.43;;;;;;;;;;5075392;28;20024;-83
2022/10/31 08:38:15;;;;;;;6.53;4.65;;;;;;;;;;5076228;28;20040;-83
2022/10/31 08:40:40;;;;;;;8.55;4.72;;;;;;;;;;5073883;28;20546;-83
2022/10/31 08:43:13;;;;;;;10.05;4.70;;;;;;;;;;5040425;28;20433;-83
2022/10/31 08:45:39;;;;;;;6.87;4.93;;;;;;;;;;5074574;28;20134;-83
2022/10/31 08:48:06;;;;;;;7.97;4.70;;;;;;;;;;5057101;28;20094;-83
2022/10/31 08:50:33;;;;;;;9.88;4.75;;;;;;;;;;5075702;28;20028;-84
2022/10/31 08:53:04;;;;;;;7.03;4.70;;;;;;;;;;5074348;28;20028;-81
2022/10/31 08:55:29;;;;;;;12.10;5.00;;;;;;;;;;5073810;28;20028;-83
2022/10/31 08:57:58;;;;;;;8.13;4.57;;;;;;;;;;5074514;28;20028;-83
2022/10/31 09:00:24;;;;;;;7.63;4.25;;;;;;;;;;5074973;28;20028;-83
2022/10/31 09:03:01;;;;;;;5.45;4.20;;;;;;;;;;5073564;28;20055;-82
2022/10/31 09:05:27;;;;;;;8.88;4.63;;;;;;;;;;5073002;28;20085;-82
2022/10/31 09:08:00;;;;;;;8.52;4.80;;;;;;;;;;5074541;28;20024;-84
2022/10/31 09:10:26;;;;;;;5.90;4.28;;;;;;;;;;5074162;28;20039;-82
2022/10/31 09:12:56;;;;;;;8.32;4.30;;;;;;;;;;5072898;28;20032;-83
2022/10/31 09:15:21;;;;;;;8.40;4.20;;;;;;;;;;5074343;28;20032;-83
2022/10/31 09:17:48;;;;;;;9.27;5.10;;;;;;;;;;5074142;28;20477;-83
2022/10/31 09:20:13;;;;;;;8.77;5.18;;;;;;;;;;5072762;28;20028;-83
2022/10/31 09:22:38;;;;;;;13.82;5.13;;;;;;;;;;5073117;28;20468;-82
2022/10/31 09:25:04;;;;;;;7.88;4.68;;;;;;;;;;5072972;28;20071;-83
2022/10/31 09:27:29;;;;;;;8.45;5.00;;;;;;;;;;5072785;28;20039;-82
2022/10/31 09:29:55;;;;;;;6.55;4.80;;;;;;;;;;5074069;28;20032;-82
2022/10/31 09:32:20;;;;;;;9.88;5.03;;;;;;;;;;5072428;28;20071;-82
2022/10/31 09:34:45;;;;;;;7.32;4.95;;;;;;;;;;5073958;28;20028;-82
2022/10/31 09:37:11;;;;;;;10.30;5.22;;;;;;;;;;5073748;28;20043;-83
2022/10/31 09:39:36;;;;;;;9.55;5.55;;;;;;;;;;5074162;28;20032;-83
2022/10/31 09:42:24;;;;;;;8.30;4.82;;;;;;;;;;5073054;28;20059;-83
2022/10/31 09:44:59;;;;;;;9.20;4.53;;;;;;;;;;5073308;28;20031;-80
2022/10/31 09:47:37;;;;;;;8.15;5.05;;;;;;;;;;5072306;28;20395;-81
2022/10/31 09:50:18;;;;;;;10.13;4.75;;;;;;;;;;5073834;28;20052;-81
2022/10/31 09:52:54;;;;;;;6.43;4.45;;;;;;;;;;5055361;28;20032;-80
2022/10/31 09:55:39;;;;;;;6.00;4.45;;;;;;;;;;5072310;28;20046;-82
2022/10/31 09:58:05;;;;;;;6.63;4.20;;;;;;;;;;5073400;28;20064;-80
2022/10/31 10:00:32;;;;;;;5.78;4.38;;;;;;;;;;5055438;28;20056;-82
2022/10/31 10:03:35;;;;;;;7.68;4.10;;;;;;;;;;5073668;28;20020;-80
2022/10/31 10:06:06;;;;;;;7.00;4.13;;;;;;;;;;5073269;28;20485;-82
2022/10/31 10:08:33;;;;;;;6.97;4.13;;;;;;;;;;5055696;28;20426;-82
2022/10/31 10:11:10;;;;;;;7.25;4.15;;;;;;;;;;5055285;28;20070;-81
2022/10/31 10:14:02;;;;;;;9.35;4.75;;;;;;;;;;5073742;28;20040;-80
2022/10/31 10:16:36;;;;;;;7.20;4.03;;;;;;;;;;5072095;28;20025;-81
2022/10/31 10:19:35;;;;;;;5.72;4.53;;;;;;;;;;5073770;28;20101;-81
2022/10/31 10:22:42;;;;;;;6.57;4.00;;;;;;;;;;5071896;28;20029;-81
2022/10/31 10:25:10;;;;;;;9.07;4.43;;;;;;;;;;5011625;28;20029;-81
2022/10/31 10:27:46;;;;;;;7.95;4.50;;;;;;;;;;5011641;28;20038;-81
2022/10/31 10:30:20;;;;;;;7.60;4.22;;;;;;;;;;5028480;28;20127;-81
2022/10/31 10:32:56;;;;;;;9.35;4.05;;;;;;;;;;5055044;28;20039;-81
2022/10/31 10:35:31;;;;;;;7.03;4.00;;;;;;;;;;5055101;28;20017;-82
2022/10/31 10:38:02;;;;;;;5.60;4.05;;;;;;;;;;5072404;28;20063;-81
2022/10/31 10:40:28;;;;;;;7.38;4.40;;;;;;;;;;5071790;28;20028;-81
2022/10/31 10:43:22;;;;;;;8.95;4.55;;;;;;;;;;5055748;28;20119;-82
2022/10/31 10:49:18;;;;;;;5.72;3.70;;;;;;;;;;5072209;28;20085;-82
2022/10/31 10:51:59;;;;;;;9.30;4.25;;;;;;;;;;5073188;28;20028;-82
2022/10/31 10:54:40;;;;;;;6.55;4.07;;;;;;;;;;5075091;28;20028;-80
2022/10/31 10:57:17;;;;;;;11.48;4.38;;;;;;;;;;5076585;28;20027;-82
2022/10/31 10:59:43;;;;;;;11.98;4.72;;;;;;;;;;5076930;28;20050;-82
2022/10/31 11:02:23;;;;;;;6.35;4.53;;;;;;;;;;5076475;28;20103;-81
2022/10/31 11:05:00;;;;;;;9.05;4.78;;;;;;;;;;5075493;28;20455;-81
2022/10/31 11:07:25;;;;;;;8.07;5.20;;;;;;;;;;5058497;28;20113;-82
2022/10/31 11:10:01;;;;;;;11.50;5.18;;;;;;;;;;5075103;28;20067;-80
2022/10/31 11:12:30;;;;;;;8.60;5.20;;;;;;;;;;5075304;28;20077;-79
2022/10/31 11:15:00;;;;;;;13.65;5.03;;;;;;;;;;5076543;28;20052;-79
2022/10/31 11:17:39;;;;;;;9.52;6.20;;;;;;;;;;5075079;28;20035;-80
2022/10/31 11:20:25;;;;;;;8.35;5.63;;;;;;;;;;5075250;28;20038;-79
2022/10/31 11:23:04;;;;;;;9.68;5.78;;;;;;;;;;5075232;28;20024;-79
2022/10/31 11:25:30;;;;;;;10.18;5.70;;;;;;;;;;5058129;28;20031;-79
2022/10/31 11:28:07;;;;;;;7.82;5.75;;;;;;;;;;5074782;28;20028;-79
2022/10/31 11:30:43;;;;;;;8.77;5.45;;;;;;;;;;5058271;28;20043;-78
2022/10/31 11:33:37;;;;;;;9.48;4.88;;;;;;;;;;5058034;28;20028;-78
2022/10/31 11:36:15;;;;;;;9.70;6.10;;;;;;;;;;5075468;28;20033;-78
2022/10/31 11:38:42;;;;;;;8.57;5.40;;;;;;;;;;5075908;28;20047;-78
2022/10/31 11:41:12;;;;;;;10.90;6.55;;;;;;;;;;5074954;28;20024;-78
2022/10/31 11:43:39;;;;;;;12.20;6.45;;;;;;;;;;5075835;28;20025;-78
2022/10/31 11:46:11;;;;;;;8.70;6.50;;;;;;;;;;5072996;28;20083;-78
2022/10/31 11:48:37;;;;;;;11.75;6.97;;;;;;;;;;5073987;28;20124;-78
2022/10/31 11:51:04;;;;;;;9.80;5.32;;;;;;;;;;5073768;28;20112;-81
2022/10/31 11:53:32;;;;;;;10.88;6.20;;;;;;;;;;5073738;28;20394;-78
2022/10/31 11:56:03;;;;;;;11.55;5.80;;;;;;;;;;5056914;28;20484;-79
2022/10/31 11:58:29;;;;;;;10.63;5.35;;;;;;;;;;5075176;28;20111;-79
2022/10/31 12:00:56;;;;;;;11.60;6.22;;;;;;;;;;5075442;28;20056;-79
2022/10/31 12:03:21;;;;;;;11.32;6.75;;;;;;;;;;5074285;28;20498;-79
2022/10/31 12:05:50;;;;;;;8.90;5.70;;;;;;;;;;5073261;28;20095;-79
2022/10/31 12:08:16;;;;;;;11.60;6.18;;;;;;;;;;5074449;28;20067;-79
2022/10/31 12:11:10;;;;;;;10.40;6.47;;;;;;;;;;5074103;28;20048;-79
2022/10/31 12:14:12;;;;;;;13.82;6.82;;;;;;;;;;5073927;28;20033;-79
2022/10/31 12:16:57;;;;;;;11.32;6.15;;;;;;;;;;5074165;28;20494;-79
2022/10/31 12:19:42;;;;;;;11.65;6.82;;;;;;;;;;5073917;28;20036;-80
2022/10/31 12:22:17;;;;;;;11.70;6.43;;;;;;;;;;5057208;28;20024;-79
2022/10/31 12:24:45;;;;;;;11.13;6.30;;;;;;;;;;5057127;28;20035;-79
2022/10/31 12:27:38;;;;;;;12.23;6.43;;;;;;;;;;5075520;28;20020;-80
2022/10/31 12:30:12;;;;;;;12.02;6.88;;;;;;;;;;5074942;28;20486;-80
2022/10/31 12:32:42;;;;;;;8.73;6.43;;;;;;;;;;5073548;28;20492;-80
2022/10/31 12:35:29;;;;;;;12.82;7.20;;;;;;;;;;5074812;28;20024;-79
2022/10/31 12:38:13;;;;;;;11.90;6.43;;;;;;;;;;5056781;28;20582;-78
2022/10/31 12:41:00;;;;;;;12.57;7.13;;;;;;;;;;5073969;28;20458;-78
2022/10/31 12:43:54;;;;;;;10.55;7.03;;;;;;;;;;5073510;28;20028;-79
2022/10/31 12:46:53;;;;;;;;;;;;;;;;;;5056809;28;20044;-80
2022/10/31 12:49:46;;;;;;;10.00;6.47;;;;;;;;;;5058178;28;19919;-79
2022/10/31 12:52:33;;;;;;;11.52;6.70;;;;;;;;;;5073319;28;20498;-79
2022/10/31 12:55:05;;;;;;;14.55;7.82;;;;;;;;;;5073187;28;20035;-80
2022/10/31 12:57:45;;;;;;;14.07;7.38;;;;;;;;;;5073032;28;20025;-80
2022/10/31 13:00:16;;;;;;;13.73;7.63;;;;;;;;;;5056450;28;20039;-79
2022/10/31 13:02:52;;;;;;;12.55;7.82;;;;;;;;;;5056709;28;20028;-80
2022/10/31 13:05:31;;;;;;;13.90;7.90;;;;;;;;;;5072908;28;20529;-79
2022/10/31 13:08:10;;;;;;;12.45;8.52;;;;;;;;;;5056285;28;20120;-79
2022/10/31 13:10:43;;;;;;;13.23;7.40;;;;;;;;;;5072900;28;20031;-79
2022/10/31 13:13:40;;;;;;;13.60;7.72;;;;;;;;;;5073025;28;20028;-80
2022/10/31 13:16:16;;;;;;;13.32;7.75;;;;;;;;;;5071409;28;20442;-80
2022/10/31 13:18:45;;;;;;;13.13;8.50;;;;;;;;;;5056079;28;20025;-81
2022/10/31 13:21:18;;;;;;;17.38;7.72;;;;;;;;;;5072892;28;20506;-81
2022/10/31 13:23:45;;;;;;;16.30;8.55;;;;;;;;;;5072691;28;20079;-80
2022/10/31 13:26:20;;;;;;;17.48;9.57;;;;;;;;;;5073926;28;20036;-80
2022/10/31 13:28:55;;;;;;;15.50;8.93;;;;;;;;;;5058097;28;20063;-79
2022/10/31 13:31:20;;;;;;;13.45;8.07;;;;;;;;;;5079218;28;20066;-80
2022/10/31 13:33:59;;;;;;;13.55;8.95;;;;;;;;;;5076952;28;20024;-80
2022/10/31 13:36:37;;;;;;;16.25;8.65;;;;;;;;;;5078682;28;20020;-80
2022/10/31 13:39:38;;;;;;;15.38;9.05;;;;;;;;;;5078100;28;20035;-79
2022/10/31 13:42:13;;;;;;;15.40;8.52;;;;;;;;;;5014147;28;20420;-79
2022/10/31 13:44:38;;;;;;;16.05;8.80;;;;;;;;;;5013665;28;20042;-80
2022/10/31 13:47:22;;;;;;;18.17;8.52;;;;;;;;;;5013490;28;20050;-79
2022/10/31 13:49:48;;;;;;;15.57;8.53;;;;;;;;;;5013721;28;20053;-79
2022/10/31 13:52:24;;;;;;;13.93;8.90;;;;;;;;;;5014715;28;20038;-79
2022/10/31 13:54:57;;;;;;;17.58;9.75;;;;;;;;;;4996663;28;20065;-80
2022/10/31 13:57:33;;;;;;;16.07;8.93;;;;;;;;;;4999870;28;20069;-79
2022/10/31 14:00:25;;;;;;;21.05;9.60;;;;;;;;;;5014800;28;20363;-79
2022/10/31 14:02:54;;;;;;;17.95;9.27;;;;;;;;;;5014501;28;20034;-79
2022/10/31 14:05:33;;;;;;;18.52;8.55;;;;;;;;;;4998165;28;20033;-80
2022/10/31 14:08:02;;;;;;;15.55;9.10;;;;;;;;;;5012722;28;20030;-79
2022/10/31 14:10:35;;;;;;;17.42;9.07;;;;;;;;;;4996803;28;20041;-79
2022/10/31 14:13:42;;;;;;;14.48;9.25;;;;;;;;;;5011957;28;20025;-79
2022/10/31 14:16:26;;;;;;;16.08;9.05;;;;;;;;;;4985778;28;20037;-80
2022/10/31 14:19:05;;;;;;;18.48;9.38;;;;;;;;;;4996222;28;20530;-81
2022/10/31 14:21:37;;;;;;;16.33;9.00;;;;;;;;;;4996320;28;20072;-79
2022/10/31 14:24:24;;;;;;;18.90;8.90;;;;;;;;;;4995648;28;20045;-80
2022/10/31 14:27:29;;;;;;;14.73;8.90;;;;;;;;;;5012541;28;20500;-79
2022/10/31 14:29:54;;;;;;;14.48;8.35;;;;;;;;;;4999110;28;20048;-79
2022/10/31 14:32:24;;;;;;;15.48;8.80;;;;;;;;;;4999173;28;20033;-79
2022/10/31 14:34:49;;;;;;;12.95;8.73;;;;;;;;;;4999335;28;20116;-79
2022/10/31 14:37:36;;;;;;;14.43;8.32;;;;;;;;;;5018381;28;20034;-79
2022/10/31 14:40:15;;;;;;;16.98;8.70;;;;;;;;;;5015168;28;20051;-79
2022/10/31 14:42:43;;;;;;;16.17;9.27;;;;;;;;;;4998899;28;20038;-79
2022/10/31 14:45:23;;;;;;;15.38;8.82;;;;;;;;;;5015154;28;20508;-80
2022/10/31 14:48:13;;;;;;;13.10;8.65;;;;;;;;;;5015694;28;20045;-79
2022/10/31 14:50:54;;;;;;;16.23;9.52;;;;;;;;;;5041664;28;20418;-79
2022/10/31 14:53:34;;;;;;;14.10;8.55;;;;;;;;;;5078020;28;20391;-79
2022/10/31 14:56:00;;;;;;;15.90;8.20;;;;;;;;;;5077004;28;20096;-79
2022/10/31 14:58:40;;;;;;;20.58;9.18;;;;;;;;;;5075878;28;20109;-79
2022/10/31 15:01:06;;;;;;;18.23;8.85;;;;;;;;;;5075759;28;20028;-79
2022/10/31 15:03:35;;;;;;;16.98;8.70;;;;;;;;;;5075727;28;20123;-79